createdAt,value
2018-01-29T05:31:22.866Z,6.50
2018-01-29T05:33:52.217Z,6.40
2018-01-29T05:36:22.904Z,6.40
2018-01-29T05:39:01.040Z,6.50
2018-01-29T05:41:29.366Z,6.40
2018-01-29T05:43:57.572Z,6.40
2018-01-29T05:46:25.849Z,6.40
2018-01-29T05:48:54.084Z,6.40
2018-01-29T05:51:23.290Z,6.40
2018-01-29T05:53:51.524Z,6.30
2018-01-29T05:56:19.747Z,6.30
2018-01-29T05:58:48.053Z,6.30
2018-01-29T06:01:16.324Z,6.40
2018-01-29T06:03:44.555Z,6.30
2018-01-29T06:06:12.776Z,6.30
2018-01-29T06:08:41.013Z,6.30
2018-01-29T06:11:09.220Z,6.40
2018-01-29T06:13:37.456Z,6.40
2018-01-29T06:16:05.670Z,6.40
2018-01-29T06:18:34.674Z,6.40
2018-01-29T06:21:02.889Z,6.30
2018-01-29T06:23:31.125Z,6.40
2018-01-29T06:25:59.410Z,6.30
2018-01-29T06:28:27.653Z,6.30
2018-01-29T06:30:56.662Z,6.30
2018-01-29T06:33:25.668Z,6.30
2018-01-29T06:35:53.913Z,6.30
2018-01-29T06:38:22.220Z,6.30
2018-01-29T06:40:50.500Z,6.30
2018-01-29T06:43:18.788Z,6.20
2018-01-29T06:45:47.048Z,6.30
2018-01-29T06:48:15.284Z,6.30
2018-01-29T06:50:45.024Z,6.40
2018-01-29T06:53:14.004Z,6.40
2018-01-29T06:55:42.232Z,6.30
2018-01-29T06:58:10.452Z,6.40
2018-01-29T07:00:40.200Z,6.30
2018-01-29T07:03:08.468Z,6.30
2018-01-29T07:05:37.633Z,6.30
2018-01-29T07:08:05.944Z,6.30
2018-01-29T07:10:34.193Z,6.30
2018-01-29T07:13:03.213Z,6.30
2018-01-29T07:15:32.308Z,6.30
2018-01-29T07:18:00.546Z,6.40
2018-01-29T07:20:28.776Z,6.40
2018-01-29T07:22:57.111Z,6.40
2018-01-29T07:25:25.316Z,6.50
2018-01-29T07:27:53.547Z,6.50
2018-01-29T07:33:31.988Z,6.90
2018-01-29T07:36:00.193Z,6.90
2018-01-29T07:38:29.153Z,6.80
2018-01-29T07:40:57.464Z,6.80
2018-01-29T07:43:26.438Z,6.80
2018-01-29T07:45:54.865Z,6.80
2018-01-29T07:48:23.083Z,6.80
2018-01-29T07:50:51.270Z,6.80
2018-01-29T07:53:20.281Z,6.80
2018-01-29T07:55:48.565Z,6.80
2018-01-29T07:58:16.769Z,6.80
2018-01-29T08:00:45.006Z,6.80
2018-01-29T08:03:13.977Z,7.00
2018-01-29T08:05:42.205Z,6.90
2018-01-29T08:08:10.413Z,7.00
2018-01-29T08:10:38.729Z,7.00
2018-01-29T08:13:07.701Z,7.10
2018-01-29T08:15:35.933Z,7.10
2018-01-29T08:18:04.142Z,7.10
2018-01-29T08:20:32.364Z,7.10
2018-01-29T08:23:00.594Z,7.20
2018-01-29T08:25:28.813Z,7.20
2018-01-29T08:27:57.013Z,7.20
2018-01-29T08:30:25.249Z,7.10
2018-01-29T08:32:54.253Z,7.20
2018-01-29T08:35:23.406Z,7.20
2018-01-29T08:37:51.609Z,7.30
2018-01-29T08:40:20.614Z,7.40
2018-01-29T08:42:48.892Z,7.40
2018-01-29T08:45:17.093Z,7.40
2018-01-29T08:47:45.341Z,7.50
2018-01-29T08:50:13.585Z,7.50
2018-01-29T08:52:41.765Z,7.50
2018-01-29T08:55:09.999Z,7.60
2018-01-29T08:57:38.220Z,7.50
2018-01-29T09:00:06.521Z,7.60
2018-01-29T09:02:34.725Z,7.60
2018-01-29T09:05:02.961Z,7.60
2018-01-29T09:07:31.965Z,7.60
2018-01-29T09:10:00.201Z,7.60
2018-01-29T09:12:28.517Z,7.70
2018-01-29T09:14:56.727Z,7.80
2018-01-29T09:17:24.969Z,7.90
2018-01-29T09:19:53.245Z,7.80
2018-01-29T09:22:21.522Z,8.00
2018-01-29T09:24:49.756Z,8.00
2018-01-29T09:27:17.973Z,8.10
2018-01-29T09:29:46.967Z,8.10
2018-01-29T09:32:15.934Z,8.10
2018-01-29T09:34:44.189Z,8.10
2018-01-29T09:37:13.369Z,8.10
2018-01-29T09:39:41.601Z,8.20
2018-01-29T09:42:10.570Z,8.20
2018-01-29T09:44:38.797Z,8.20
2018-01-29T09:47:07.002Z,8.20
2018-01-29T09:49:35.229Z,8.40
2018-01-29T09:52:03.506Z,8.50
2018-01-29T09:54:32.505Z,8.40
2018-01-29T09:57:00.708Z,8.40
2018-01-29T09:59:28.953Z,8.30
2018-01-29T10:01:57.150Z,8.50
2018-01-29T10:04:25.381Z,8.50
2018-01-29T10:06:53.583Z,8.40
2018-01-29T10:09:21.804Z,8.50
2018-01-29T10:11:50.020Z,8.30
2018-01-29T10:14:19.116Z,8.20
2018-01-29T10:16:48.184Z,8.20
2018-01-29T10:19:16.389Z,8.20
2018-01-29T10:21:45.348Z,8.40
2018-01-29T10:24:14.341Z,8.60
2018-01-29T10:26:48.342Z,8.50
2018-01-29T10:29:16.561Z,8.60
2018-01-29T10:31:45.557Z,8.70
2018-01-29T10:34:14.549Z,8.80
2018-01-29T10:36:43.614Z,8.80
2018-01-29T10:39:11.796Z,8.80
2018-01-29T10:41:40.020Z,8.90
2018-01-29T10:44:08.342Z,8.80
2018-01-29T10:46:36.524Z,8.90
2018-01-29T10:49:04.821Z,9.00
2018-01-29T10:51:34.733Z,9.00
2018-01-29T10:54:03.699Z,8.90
2018-01-29T10:56:31.924Z,8.90
2018-01-29T10:59:00.182Z,9.10
2018-01-29T11:01:29.160Z,9.00
2018-01-29T11:03:58.152Z,9.10
2018-01-29T11:06:26.475Z,9.10
2018-01-29T11:08:55.535Z,9.40
2018-01-29T11:11:24.636Z,9.40
2018-01-29T11:13:53.605Z,9.30
2018-01-29T11:16:24.013Z,9.40
2018-01-29T11:18:52.235Z,9.40
2018-01-29T11:21:20.508Z,9.50
2018-01-29T11:23:49.604Z,9.60
2018-01-29T11:26:18.601Z,9.70
2018-01-29T11:28:47.588Z,9.70
2018-01-29T11:31:16.593Z,9.80
2018-01-29T11:33:44.787Z,9.80
2018-01-29T11:36:13.012Z,9.80
2018-01-29T11:38:41.236Z,9.50
2018-01-29T11:41:09.488Z,9.40
2018-01-29T11:43:38.477Z,9.80
2018-01-29T11:46:07.526Z,10.00
2018-01-29T11:48:35.984Z,10.00
2018-01-29T11:51:04.207Z,9.80
2018-01-29T11:53:32.416Z,10.20
2018-01-29T11:56:00.649Z,10.60
2018-01-29T11:58:28.960Z,10.30
2018-01-29T12:00:58.272Z,10.20
2018-01-29T12:03:26.472Z,10.20
2018-01-29T12:05:54.787Z,10.10
2018-01-29T12:08:22.973Z,10.00
2018-01-29T12:10:51.961Z,10.20
2018-01-29T12:13:20.169Z,10.20
2018-01-29T12:15:48.402Z,10.30
2018-01-29T12:18:16.609Z,10.30
2018-01-29T12:20:45.709Z,10.50
2018-01-29T12:23:13.936Z,10.50
2018-01-29T12:25:42.228Z,10.70
2018-01-29T12:28:10.397Z,10.40
2018-01-29T12:30:38.708Z,10.20
2018-01-29T12:33:06.953Z,10.30
2018-01-29T12:35:35.156Z,10.40
2018-01-29T12:38:04.124Z,10.60
2018-01-29T12:40:32.433Z,10.60
2018-01-29T12:43:00.655Z,10.40
2018-01-29T12:45:28.865Z,10.40
2018-01-29T12:47:57.860Z,10.70
2018-01-29T12:50:26.868Z,10.70
2018-01-29T12:52:55.934Z,10.80
2018-01-29T12:55:24.105Z,10.80
2018-01-29T12:57:52.320Z,10.80
2018-01-29T13:00:20.587Z,10.70
2018-01-29T13:02:49.588Z,10.80
2018-01-29T13:05:17.792Z,10.80
2018-01-29T13:07:46.037Z,10.90
2018-01-29T13:10:14.240Z,10.80
2018-01-29T13:12:42.484Z,11.00
2018-01-29T13:15:11.580Z,11.30
2018-01-29T13:17:40.653Z,11.40
2018-01-29T13:20:08.821Z,11.40
2018-01-29T13:22:37.049Z,11.40
2018-01-29T13:25:05.305Z,11.30
2018-01-29T13:27:33.549Z,11.10
2018-01-29T13:30:02.796Z,11.00
2018-01-29T13:32:31.030Z,11.10
2018-01-29T13:34:59.228Z,11.00
2018-01-29T13:37:28.501Z,11.40
2018-01-29T13:39:56.673Z,11.40
2018-01-29T13:42:24.892Z,11.50
2018-01-29T13:44:53.162Z,11.40
2018-01-29T13:47:21.428Z,11.20
2018-01-29T13:49:50.396Z,11.00
2018-01-29T13:52:18.734Z,10.90
2018-01-29T13:54:46.936Z,10.90
2018-01-29T13:57:15.223Z,10.90
2018-01-29T13:59:43.428Z,10.80
2018-01-29T14:02:12.427Z,10.80
2018-01-29T14:04:40.629Z,10.80
2018-01-29T14:07:08.877Z,10.70
2018-01-29T14:09:37.084Z,10.80
2018-01-29T14:12:05.324Z,10.70
2018-01-29T14:14:33.604Z,10.60
2018-01-29T14:17:01.837Z,10.50
2018-01-29T14:19:30.786Z,10.40
2018-01-29T14:21:58.992Z,10.20
2018-01-29T14:24:27.197Z,10.20
2018-01-29T14:26:55.428Z,10.20
2018-01-29T14:29:23.660Z,10.20
2018-01-29T14:31:52.656Z,10.20
2018-01-29T14:34:21.648Z,10.20
2018-01-29T14:36:50.621Z,10.20
2018-01-29T14:39:20.352Z,9.90
2018-01-29T14:41:49.357Z,9.90
2018-01-29T14:44:18.453Z,10.00
2018-01-29T14:46:46.729Z,10.00
2018-01-29T14:49:15.721Z,10.00
2018-01-29T14:51:43.933Z,10.00
2018-01-29T14:54:12.144Z,10.00
2018-01-29T14:56:40.450Z,10.10
2018-01-29T14:59:09.444Z,10.00
2018-01-29T15:01:38.408Z,9.90
2018-01-29T15:04:07.125Z,9.80
2018-01-29T15:06:36.117Z,9.80
2018-01-29T15:09:05.117Z,9.70
2018-01-29T15:11:33.325Z,9.70
2018-01-29T15:14:02.277Z,9.60
2018-01-29T15:16:31.309Z,9.30
2018-01-29T15:18:59.552Z,9.30
2018-01-29T15:21:28.509Z,9.10
2018-01-29T15:23:56.736Z,9.10
2018-01-29T15:26:24.941Z,9.10
2018-01-29T15:28:53.161Z,9.00
2018-01-29T15:31:23.080Z,9.10
2018-01-29T15:33:52.085Z,9.10
2018-01-29T15:36:20.353Z,9.00
2018-01-29T15:38:49.326Z,8.90
2018-01-29T15:41:17.552Z,8.90
2018-01-29T15:43:45.765Z,8.90
2018-01-29T15:46:14.752Z,8.80
2018-01-29T15:48:42.957Z,8.80
2018-01-29T15:51:12.031Z,8.70
2018-01-29T15:53:40.308Z,8.70
2018-01-29T15:56:08.496Z,8.70
2018-01-29T15:58:37.456Z,8.50
2018-01-29T16:01:05.690Z,8.50
2018-01-29T16:03:33.909Z,8.50
2018-01-29T16:06:02.132Z,8.40
2018-01-29T16:08:30.376Z,8.40
2018-01-29T16:10:58.561Z,8.30
2018-01-29T16:13:26.793Z,8.30
2018-01-29T16:15:55.027Z,8.30
2018-01-29T16:18:24.134Z,8.10
2018-01-29T16:20:53.120Z,8.10
2018-01-29T16:23:22.088Z,8.10
2018-01-29T16:25:50.384Z,8.10
2018-01-29T16:28:19.376Z,8.00
2018-01-29T16:30:48.375Z,8.00
2018-01-29T16:33:17.372Z,8.00
2018-01-29T16:35:46.365Z,8.00
2018-01-29T16:38:15.356Z,8.00
2018-01-29T16:40:44.356Z,8.00
2018-01-29T16:43:13.349Z,8.00
2018-01-29T16:45:42.360Z,8.00
2018-01-29T16:48:10.556Z,8.00
2018-01-29T16:50:38.821Z,8.00
2018-01-29T16:53:07.068Z,7.90
2018-01-29T16:55:36.160Z,7.80
2018-01-29T16:58:05.153Z,7.70
2018-01-29T17:00:34.143Z,7.70
2018-01-29T17:03:03.184Z,7.70
2018-01-29T17:05:31.396Z,7.70
2018-01-29T17:07:59.698Z,7.70
2018-01-29T17:10:28.700Z,7.60
2018-01-29T17:12:56.899Z,7.60
2018-01-29T17:15:25.148Z,7.60
2018-01-29T17:17:53.363Z,7.50
2018-01-29T17:20:21.593Z,7.50
2018-01-29T17:22:50.584Z,7.50
2018-01-29T17:25:19.592Z,7.60
2018-01-29T17:27:48.545Z,7.60
2018-01-29T17:30:16.948Z,7.60
2018-01-29T17:32:45.913Z,7.60
2018-01-29T17:35:14.155Z,7.60
2018-01-29T17:37:42.344Z,7.60
2018-01-29T17:40:10.595Z,7.70
2018-01-29T17:42:38.848Z,7.60
2018-01-29T17:45:07.850Z,7.60
2018-01-29T17:47:36.836Z,7.60
2018-01-29T17:50:05.824Z,7.60
2018-01-29T17:52:35.120Z,7.60
2018-01-29T17:55:03.562Z,7.60
2018-01-29T17:57:33.705Z,7.60
2018-01-29T18:00:02.347Z,7.60
2018-01-29T18:02:31.429Z,7.70
2018-01-29T18:04:59.964Z,7.70
2018-01-29T18:07:28.218Z,7.70
2018-01-29T18:09:56.400Z,7.70
2018-01-29T18:12:24.674Z,7.70
2018-01-29T18:14:52.856Z,7.70
2018-01-29T18:17:22.592Z,7.70
2018-01-29T18:19:51.566Z,7.70
2018-01-29T18:22:19.910Z,7.70
2018-01-29T18:24:48.143Z,7.70
2018-01-29T18:27:16.432Z,7.70
2018-01-29T18:29:44.629Z,7.80
2018-01-29T18:32:12.932Z,7.80
2018-01-29T18:34:41.158Z,7.90
2018-01-29T18:37:10.187Z,7.90
2018-01-29T18:39:38.400Z,7.90
2018-01-29T18:42:06.652Z,7.90
2018-01-29T18:44:34.918Z,8.00
2018-01-29T18:47:03.137Z,8.00
2018-01-29T18:49:32.136Z,8.00
2018-01-29T18:52:01.180Z,8.10
2018-01-29T18:54:29.455Z,8.00
2018-01-29T18:56:57.674Z,8.10
2018-01-29T18:59:26.021Z,8.00
2018-01-29T19:01:54.241Z,8.00
2018-01-29T19:04:23.208Z,8.00
2018-01-29T19:06:51.428Z,8.00
2018-01-29T19:09:19.640Z,8.00
2018-01-29T19:11:47.935Z,8.00
2018-01-29T19:14:16.184Z,8.00
2018-01-29T19:16:44.403Z,8.00
2018-01-29T19:19:13.451Z,8.10
2018-01-29T19:21:41.728Z,8.10
2018-01-29T19:24:09.987Z,8.10
2018-01-29T19:26:38.201Z,8.20
2018-01-29T19:29:06.578Z,8.20
2018-01-29T19:31:34.786Z,8.20
2018-01-29T19:34:03.818Z,8.30
2018-01-29T19:36:32.037Z,8.30
2018-01-29T19:39:01.096Z,8.30
2018-01-29T19:41:29.363Z,8.30
2018-01-29T19:43:57.887Z,8.30
2018-01-29T19:46:26.152Z,8.30
2018-01-29T19:48:54.408Z,8.30
2018-01-29T19:51:22.675Z,8.30
2018-01-29T19:53:50.904Z,8.30
2018-01-29T19:56:19.874Z,8.30
2018-01-29T19:58:48.147Z,8.30
2018-01-29T20:01:16.456Z,8.30
2018-01-29T20:03:45.458Z,8.30
2018-01-29T20:06:14.548Z,8.40
2018-01-29T20:08:43.509Z,8.40
2018-01-29T20:11:11.858Z,8.40
2018-01-29T20:13:40.049Z,8.40
2018-01-29T20:16:08.324Z,8.40
2018-01-29T20:18:36.566Z,8.50
2018-01-29T20:21:04.819Z,8.50
2018-01-29T20:23:33.823Z,8.50
2018-01-29T20:26:02.847Z,8.60
2018-01-29T20:28:31.371Z,8.50
2018-01-29T20:31:00.808Z,8.60
2018-01-29T20:33:29.748Z,8.50
2018-01-29T20:35:58.064Z,8.50
2018-01-29T20:38:27.080Z,8.40
2018-01-29T20:40:55.343Z,8.40
2018-01-29T20:43:24.512Z,8.50
2018-01-29T20:45:52.854Z,8.50
2018-01-29T20:48:21.105Z,8.50
2018-01-29T20:50:50.226Z,8.50
2018-01-29T20:53:18.507Z,8.50
2018-01-29T20:55:46.830Z,8.50
2018-01-29T20:58:15.043Z,8.50
2018-01-29T21:00:43.330Z,8.40
2018-01-29T21:03:11.550Z,8.30
2018-01-29T21:05:39.960Z,8.30
2018-01-29T21:08:08.996Z,8.30
2018-01-29T21:10:37.288Z,8.30
2018-01-29T21:13:05.556Z,8.20
2018-01-29T21:15:33.788Z,8.20
2018-01-29T21:18:02.096Z,8.10
2018-01-29T21:20:30.323Z,8.10
2018-01-29T21:22:59.459Z,8.10
2018-01-29T21:25:27.644Z,8.10
2018-01-29T21:27:55.868Z,8.10
2018-01-29T21:30:25.040Z,8.10
2018-01-29T21:32:54.240Z,8.10
2018-01-29T21:35:22.515Z,8.00
2018-01-29T21:37:52.305Z,8.10
2018-01-29T21:40:20.576Z,8.10
2018-01-29T21:42:48.842Z,8.10
2018-01-29T21:45:18.170Z,8.10
2018-01-29T21:47:46.468Z,8.10
2018-01-29T21:50:14.821Z,8.20
2018-01-29T21:52:43.056Z,8.20
2018-01-29T21:55:11.279Z,8.20
2018-01-29T21:57:39.508Z,8.20
2018-01-29T22:00:07.804Z,8.20
2018-01-29T22:02:36.105Z,8.20
2018-01-29T22:05:04.346Z,8.20
2018-01-29T22:07:32.576Z,8.30
2018-01-29T22:10:01.621Z,8.30
2018-01-29T22:12:29.884Z,8.30
2018-01-29T22:14:58.142Z,8.30
2018-01-29T22:17:27.230Z,8.30
2018-01-29T22:19:56.189Z,8.20
2018-01-29T22:22:26.033Z,8.20
2018-01-29T22:24:54.386Z,8.20
2018-01-29T22:27:22.684Z,8.30
2018-01-29T22:29:51.725Z,8.30
2018-01-29T22:32:19.994Z,8.20
2018-01-29T22:34:48.521Z,8.20
2018-01-29T22:37:16.754Z,8.20
2018-01-29T22:39:44.987Z,8.20
2018-01-29T22:42:13.965Z,8.10
2018-01-29T22:44:43.044Z,8.10
2018-01-29T22:47:11.282Z,8.10
2018-01-29T22:49:39.534Z,8.10
2018-01-29T22:52:08.517Z,8.00
2018-01-29T22:54:37.509Z,8.00
2018-01-29T22:57:06.646Z,8.00
2018-01-29T22:59:34.838Z,8.00
2018-01-29T23:02:03.060Z,8.00
2018-01-29T23:04:31.296Z,8.00
2018-01-29T23:06:59.508Z,8.00
2018-01-29T23:09:28.563Z,8.00
2018-01-29T23:11:56.756Z,8.00
2018-01-29T23:14:25.020Z,8.00
2018-01-29T23:16:54.729Z,8.00
2018-01-29T23:19:23.865Z,8.00
2018-01-29T23:21:52.100Z,7.90
2018-01-29T23:24:22.079Z,8.00
2018-01-29T23:26:50.311Z,7.90
2018-01-29T23:29:19.323Z,7.90
2018-01-29T23:31:48.321Z,7.90
2018-01-29T23:34:16.892Z,7.90
2018-01-29T23:36:46.161Z,7.90
2018-01-29T23:39:14.464Z,7.90
2018-01-29T23:41:43.465Z,7.80
2018-01-29T23:44:12.452Z,7.80
